Brunswick, Tennessee
Current Conditions -  °F | °C
As of 4:50 PM on Sunday 23 Nov 2014 (Local Time) from KNQA Reporting Station
Overcast Overcast  
Wind Chill: 61°   Ceiling: 700
Heat Index: 61°   Visibility: 7mi
Dew Point: 61°   Wind: 9mph
Humidity: 100%   Direction: 250°WSW
Pressure: 29.35"   Gusts: NA
Location:  35.27°N, 89.77°W
Report Text: KNQA 232250Z 25008KT 7SM BKN007 BKN011 OVC020 16/16 A2935
Loading
Personal Weather Stations






























Interactive Weather Map New forecast layout! Learn more

10-Day Weather Forecast

Advertisements
Track Severe Weather on mobile